Time;durP1;ratioP1;P1;durP2;ratioP2;P2;SDS_P1;SDS_P2;PMS_P1;PMS_P2;Temp;Humidity;BMP_temperature;BMP_pressure;BME280_temperature;BME280_humidity;BME280_pressure;Samples;Min_cycle;Max_cycle;Signal;HPM_P1;HPM_P2
2023/04/17 00:00:37;;;;;;;36.53;19.92;;;;;;;8.46;100.00;102522.50;4958662;28;20053;-96
2023/04/17 00:03:03;;;;;;;37.90;19.58;;;;;;;8.47;100.00;102519.09;4957612;28;20187;-95
2023/04/17 00:05:30;;;;;;;39.90;19.67;;;;;;;8.49;100.00;102518.38;4959011;28;20370;-95
2023/04/17 00:07:58;;;;;;;40.17;20.52;;;;;;;8.49;100.00;102526.19;4958157;28;20116;-96
2023/04/17 00:10:24;;;;;;;40.72;20.63;;;;;;;8.49;100.00;102520.97;4957921;28;20022;-95
2023/04/17 00:12:50;;;;;;;38.50;20.45;;;;;;;8.51;100.00;102521.06;4956985;28;20476;-95
2023/04/17 00:15:15;;;;;;;39.13;20.42;;;;;;;8.51;100.00;102511.56;4958638;28;20031;-96
2023/04/17 00:17:41;;;;;;;42.00;21.15;;;;;;;8.55;100.00;102519.56;4957847;28;20567;-96
2023/04/17 00:20:09;;;;;;;39.13;21.05;;;;;;;8.55;100.00;102506.56;4956475;28;20050;-96
2023/04/17 00:22:35;;;;;;;39.90;20.83;;;;;;;8.58;100.00;102504.16;4958345;28;20062;-96
2023/04/17 00:25:01;;;;;;;36.15;19.65;;;;;;;8.59;99.93;102506.84;4958679;28;20030;-96
2023/04/17 00:27:26;;;;;;;40.38;20.67;;;;;;;8.62;99.72;102503.53;4957806;28;20041;-96
2023/04/17 00:29:52;;;;;;;39.15;20.90;;;;;;;8.60;99.67;102494.72;4957859;28;20606;-96
2023/04/17 00:32:17;;;;;;;37.05;20.70;;;;;;;8.61;99.39;102504.31;4958271;28;20029;-96
2023/04/17 00:34:42;;;;;;;39.90;20.70;;;;;;;8.58;99.21;102498.97;4956809;28;20209;-95
2023/04/17 00:37:08;;;;;;;38.97;21.13;;;;;;;8.51;98.82;102489.91;4956638;28;20037;-96
2023/04/17 00:39:33;;;;;;;41.60;20.98;;;;;;;8.48;98.94;102495.78;4957800;28;20031;-95
2023/04/17 00:41:58;;;;;;;37.05;19.45;;;;;;;8.47;99.24;102496.63;4959224;28;20030;-95
2023/04/17 00:44:24;;;;;;;37.28;19.75;;;;;;;8.44;99.65;102493.81;4957265;28;20023;-96
2023/04/17 00:46:50;;;;;;;38.20;20.52;;;;;;;8.40;99.18;102506.50;4957176;28;20395;-96
2023/04/17 00:49:15;;;;;;;39.72;19.95;;;;;;;8.35;99.68;102501.06;4956800;28;20031;-96
2023/04/17 00:51:41;;;;;;;38.53;20.52;;;;;;;8.34;100.00;102499.25;4957327;28;20030;-95
2023/04/17 00:54:07;;;;;;;37.63;20.25;;;;;;;8.31;100.00;102496.47;4959243;28;20568;-96
2023/04/17 00:56:32;;;;;;;39.42;20.02;;;;;;;8.31;100.00;102494.78;4959227;28;20038;-95
2023/04/17 00:59:00;;;;;;;35.65;19.35;;;;;;;8.33;100.00;102493.16;4962255;28;20041;-96
2023/04/17 01:01:25;;;;;;;44.65;21.85;;;;;;;8.33;100.00;102487.09;4962320;28;20022;-96
2023/04/17 01:03:52;;;;;;;38.47;20.40;;;;;;;8.34;100.00;102492.38;4961749;28;20026;-96
2023/04/17 01:06:18;;;;;;;37.13;20.42;;;;;;;8.36;100.00;102495.94;4962140;28;20074;-96
2023/04/17 01:08:43;;;;;;;40.60;20.35;;;;;;;8.38;100.00;102493.44;4962627;28;20466;-95
2023/04/17 01:11:09;;;;;;;41.08;20.17;;;;;;;8.40;100.00;102484.03;4961060;28;20065;-96
2023/04/17 01:13:55;;;;;;;42.67;20.80;;;;;;;8.39;100.00;102495.22;4961552;28;20057;-96
2023/04/17 01:16:20;;;;;;;44.13;21.05;;;;;;;8.35;100.00;102494.13;4960415;28;20042;-96
2023/04/17 01:18:47;;;;;;;38.47;21.25;;;;;;;8.36;100.00;102497.66;4961213;28;20069;-96
2023/04/17 01:21:13;;;;;;;39.67;20.85;;;;;;;8.32;100.00;102503.47;4963064;28;20030;-96
2023/04/17 01:23:48;;;;;;;42.40;21.27;;;;;;;8.31;100.00;102497.38;4960394;28;20034;-96
2023/04/17 01:26:21;;;;;;;39.50;20.73;;;;;;;8.31;100.00;102499.06;4961771;28;20038;-96
2023/04/17 01:28:55;;;;;;;37.10;19.40;;;;;;;8.28;100.00;102498.88;4960027;28;20031;-96
2023/04/17 01:31:21;;;;;;;38.97;20.77;;;;;;;8.27;100.00;102497.09;4959835;28;20559;-96
2023/04/17 01:33:47;;;;;;;39.97;20.35;;;;;;;8.27;100.00;102494.50;4960631;28;20023;-95
2023/04/17 01:36:12;;;;;;;40.78;21.33;;;;;;;8.26;100.00;102495.31;4961766;28;20030;-96
2023/04/17 01:38:38;;;;;;;43.60;20.80;;;;;;;8.25;99.75;102498.72;4961684;28;20030;-96
2023/04/17 01:41:08;;;;;;;43.13;21.15;;;;;;;8.21;99.73;102504.53;4975050;28;20090;-96
2023/04/17 01:43:36;;;;;;;36.75;19.42;;;;;;;8.18;100.00;102502.63;4960097;28;20033;-96
2023/04/17 01:46:01;;;;;;;41.35;20.42;;;;;;;8.18;99.94;102500.03;4960598;28;20030;-95
2023/04/17 01:48:27;;;;;;;34.72;19.42;;;;;;;8.24;100.00;102504.69;4960769;28;20033;-96
2023/04/17 01:50:52;;;;;;;39.67;19.15;;;;;;;8.27;99.61;102503.19;4960728;28;20031;-95
2023/04/17 01:53:17;;;;;;;39.20;19.95;;;;;;;8.25;99.61;102501.31;4960107;28;20032;-96
2023/04/17 01:55:43;;;;;;;38.83;19.95;;;;;;;8.26;99.90;102500.50;4957552;28;20381;-95
2023/04/17 01:58:08;;;;;;;41.25;19.80;;;;;;;8.26;99.75;102503.09;4961678;28;20615;-96
2023/04/17 02:00:34;;;;;;;37.90;19.20;;;;;;;8.23;99.64;102500.34;4961842;28;20033;-96
2023/04/17 02:02:59;;;;;;;38.58;20.20;;;;;;;8.23;99.64;102508.13;4959570;28;20034;-96
2023/04/17 02:05:24;;;;;;;37.33;19.58;;;;;;;8.26;99.88;102506.59;4959805;28;20030;-95
2023/04/17 02:07:50;;;;;;;36.35;19.05;;;;;;;8.27;99.65;102505.78;4958607;28;20035;-96
2023/04/17 02:10:15;;;;;;;36.83;19.20;;;;;;;8.27;99.92;102507.47;4960296;28;20019;-96
2023/04/17 02:12:41;;;;;;;39.65;20.23;;;;;;;8.26;99.97;102503.09;4960700;28;20046;-96
2023/04/17 02:15:06;;;;;;;38.20;20.60;;;;;;;8.24;99.51;102504.69;4960895;28;20022;-96
2023/04/17 02:17:32;;;;;;;36.08;19.30;;;;;;;8.19;99.39;102500.13;4960856;28;20130;-96
2023/04/17 02:19:57;;;;;;;38.08;19.17;;;;;;;8.18;99.17;102507.81;4959632;28;20042;-96
2023/04/17 02:22:22;;;;;;;36.45;19.52;;;;;;;8.17;99.26;102500.84;4958304;28;20062;-96
2023/04/17 02:24:48;;;;;;;36.65;18.95;;;;;;;8.17;99.56;102500.84;4957826;28;20113;-96
2023/04/17 02:27:13;;;;;;;38.03;18.92;;;;;;;8.18;99.11;102498.34;4957976;28;20022;-96
2023/04/17 02:29:38;;;;;;;38.63;19.33;;;;;;;8.18;99.16;102498.34;4956677;28;20030;-96
2023/04/17 02:32:04;;;;;;;34.50;19.40;;;;;;;8.20;98.90;102501.03;4956520;28;20034;-96
2023/04/17 02:34:29;;;;;;;37.33;20.02;;;;;;;8.21;99.07;102500.22;4957950;28;20477;-96
2023/04/17 02:36:55;;;;;;;39.03;19.17;;;;;;;8.21;99.20;102499.31;4955028;28;20022;-96
2023/04/17 02:39:20;;;;;;;35.47;19.92;;;;;;;8.16;98.90;102502.53;4956985;28;20104;-96
2023/04/17 02:41:45;;;;;;;35.92;19.30;;;;;;;8.15;99.09;102498.19;4957527;28;20049;-96
2023/04/17 02:44:11;;;;;;;42.42;20.48;;;;;;;8.16;99.40;102499.94;4957287;28;20419;-96
2023/04/17 02:46:36;;;;;;;39.65;20.45;;;;;;;8.17;99.36;102501.75;4956785;28;20037;-96
2023/04/17 02:49:01;;;;;;;36.33;19.88;;;;;;;8.18;99.32;102498.34;4954996;28;20034;-96
2023/04/17 02:51:27;;;;;;;38.53;20.10;;;;;;;8.19;99.03;102502.72;4956609;28;20030;-96
2023/04/17 02:53:52;;;;;;;39.63;20.05;;;;;;;8.16;99.46;102507.72;4957961;28;20046;-96
2023/04/17 02:56:17;;;;;;;41.70;20.63;;;;;;;8.15;99.80;102503.38;4957844;28;20042;-96
2023/04/17 02:58:45;;;;;;;38.60;19.55;;;;;;;8.13;99.09;102507.56;4957681;28;20084;-95
2023/04/17 03:01:11;;;;;;;41.60;20.27;;;;;;;8.11;99.55;102513.44;4955741;28;20022;-95
2023/04/17 03:03:37;;;;;;;42.67;20.83;;;;;;;8.08;99.89;102503.81;4957616;28;21370;-95
2023/04/17 03:06:02;;;;;;;40.58;20.65;;;;;;;8.07;100.00;102509.78;4955638;28;20045;-96
2023/04/17 03:08:28;;;;;;;41.67;20.20;;;;;;;8.07;100.00;102502.00;4955515;28;20500;-96
2023/04/17 03:10:54;;;;;;;42.65;21.42;;;;;;;8.07;100.00;102512.38;4973319;28;20033;-96
2023/04/17 03:13:19;;;;;;;43.47;21.80;;;;;;;8.06;100.00;102513.19;4973772;28;20558;-95
2023/04/17 03:15:45;;;;;;;45.05;21.67;;;;;;;8.04;100.00;102526.84;4973433;28;20033;-96
2023/04/17 03:18:10;;;;;;;43.40;20.77;;;;;;;8.00;100.00;102526.66;4975733;28;20121;-96
2023/04/17 03:20:35;;;;;;;42.42;21.45;;;;;;;7.94;100.00;102515.03;4976357;28;20066;-96
2023/04/17 03:23:01;;;;;;;43.50;22.55;;;;;;;7.93;100.00;102519.31;4959954;28;20129;-96
2023/04/17 03:25:26;;;;;;;46.00;21.65;;;;;;;7.90;100.00;102524.31;4960960;28;20117;-96
2023/04/17 03:27:51;;;;;;;42.05;21.55;;;;;;;7.89;100.00;102516.44;4976495;28;20038;-95
2023/04/17 03:30:17;;;;;;;42.88;22.08;;;;;;;7.86;100.00;102519.72;4976943;28;20396;-96
2023/04/17 03:32:42;;;;;;;41.95;20.95;;;;;;;7.83;100.00;102515.28;4959660;28;20492;-95
2023/04/17 03:35:07;;;;;;;44.65;21.60;;;;;;;7.81;100.00;102515.97;4957968;28;20082;-96
2023/04/17 03:37:33;;;;;;;44.70;21.75;;;;;;;7.77;100.00;102514.88;4956651;28;20555;-96
2023/04/17 03:39:58;;;;;;;43.53;21.25;;;;;;;7.73;100.00;102514.59;4959394;28;20030;-96
2023/04/17 03:42:25;;;;;;;47.00;22.27;;;;;;;7.70;100.00;102512.69;4959238;28;20110;-96
2023/04/17 03:44:51;;;;;;;46.50;21.42;;;;;;;7.70;100.00;102515.28;4959394;28;20030;-96
2023/04/17 03:47:16;;;;;;;44.42;21.33;;;;;;;7.70;100.00;102517.88;4959674;28;20040;-95
2023/04/17 03:49:41;;;;;;;45.97;20.65;;;;;;;7.72;100.00;102512.78;4957733;28;20652;-96
2023/04/17 03:52:07;;;;;;;43.95;21.25;;;;;;;7.74;100.00;102512.09;4958024;28;20116;-96
2023/04/17 03:54:34;;;;;;;48.40;21.77;;;;;;;7.77;100.00;102514.88;4957813;28;20121;-96
2023/04/17 03:57:00;;;;;;;44.25;20.52;;;;;;;7.78;100.00;102516.69;4958588;28;20042;-96
2023/04/17 03:59:26;;;;;;;42.60;20.55;;;;;;;7.80;100.00;102515.06;4960507;28;20041;-95
2023/04/17 04:01:53;;;;;;;44.55;23.15;;;;;;;7.79;100.00;102509.78;4958469;28;20031;-95
2023/04/17 04:04:18;;;;;;;41.40;20.55;;;;;;;7.80;100.00;102516.78;4954465;28;20408;-96
2023/04/17 04:06:43;;;;;;;45.75;21.00;;;;;;;7.80;100.00;102504.69;4956699;28;20038;-95
2023/04/17 04:09:09;;;;;;;42.35;21.10;;;;;;;7.84;100.00;102518.75;4958656;28;20032;-96
2023/04/17 04:11:34;;;;;;;46.40;22.13;;;;;;;7.82;100.00;102507.38;4958651;28;20028;-96
2023/04/17 04:14:00;;;;;;;46.03;21.52;;;;;;;7.82;100.00;102513.47;4956628;28;20371;-95
2023/04/17 04:16:26;;;;;;;47.22;21.75;;;;;;;7.81;100.00;102511.66;4956032;28;20026;-96
2023/04/17 04:18:51;;;;;;;45.65;20.60;;;;;;;7.80;100.00;102509.88;4958123;28;20416;-95
2023/04/17 04:21:16;;;;;;;44.78;21.05;;;;;;;7.77;100.00;102514.88;4958619;28;20085;-95
2023/04/17 04:23:44;;;;;;;47.90;22.08;;;;;;;7.77;100.00;102520.06;4957089;28;20120;-96
2023/04/17 04:26:10;;;;;;;46.83;21.98;;;;;;;7.74;100.00;102522.47;4958331;28;20034;-96
2023/04/17 04:28:37;;;;;;;46.55;21.80;;;;;;;7.73;100.00;102518.06;4957829;28;20054;-96
2023/04/17 04:31:02;;;;;;;44.25;21.23;;;;;;;7.71;100.00;102527.47;4959368;28;20400;-95
2023/04/17 04:33:28;;;;;;;46.70;21.33;;;;;;;7.76;100.00;102522.56;4963323;28;20044;-96
2023/04/17 04:35:54;;;;;;;48.92;22.65;;;;;;;7.74;100.00;102524.19;4960230;28;20035;-96
2023/04/17 04:38:28;;;;;;;48.33;21.38;;;;;;;7.73;100.00;102531.06;4978807;28;20053;-96
2023/04/17 04:41:00;;;;;;;48.45;22.40;;;;;;;7.71;100.00;102524.00;4978206;28;20034;-96
2023/04/17 04:43:28;;;;;;;47.47;22.15;;;;;;;7.70;100.00;102529.97;4962658;28;20045;-96
2023/04/17 04:45:54;;;;;;;41.47;21.02;;;;;;;7.69;100.00;102530.78;4963203;28;20657;-96
2023/04/17 04:48:19;;;;;;;50.25;21.98;;;;;;;7.67;100.00;102533.28;4979213;28;20061;-95
2023/04/17 04:50:45;;;;;;;44.53;21.65;;;;;;;7.65;100.00;102535.78;4959571;28;20030;-96
2023/04/17 04:53:10;;;;;;;45.83;21.60;;;;;;;7.65;100.00;102534.88;4961815;28;20597;-95
2023/04/17 04:55:35;;;;;;;46.65;22.15;;;;;;;7.63;100.00;102539.97;4962536;28;20040;-95
2023/04/17 04:58:01;;;;;;;49.10;23.10;;;;;;;7.60;100.00;102537.19;4960031;28;20042;-95
2023/04/17 05:00:26;;;;;;;47.15;22.45;;;;;;;7.57;100.00;102538.69;4962427;28;20030;-95
2023/04/17 05:02:51;;;;;;;49.17;21.73;;;;;;;7.55;100.00;102537.69;4960355;28;20022;-96
2023/04/17 05:05:17;;;;;;;50.28;23.02;;;;;;;7.51;100.00;102536.59;4961276;28;20126;-96
2023/04/17 05:07:42;;;;;;;49.78;23.83;;;;;;;7.48;100.00;102544.19;4962127;28;20491;-96
2023/04/17 05:10:08;;;;;;;52.10;23.27;;;;;;;7.45;100.00;102542.28;4961051;28;20026;-96
2023/04/17 05:12:34;;;;;;;50.83;23.67;;;;;;;7.46;100.00;102544.09;4960800;28;20045;-96
2023/04/17 05:14:59;;;;;;;54.30;23.75;;;;;;;7.48;100.00;102545.06;4961091;28;20038;-96
2023/04/17 05:17:24;;;;;;;49.05;23.40;;;;;;;7.52;100.00;102542.66;4962815;28;20464;-96
2023/04/17 05:19:50;;;;;;;51.63;23.83;;;;;;;7.52;100.00;102553.97;4959891;28;20403;-95
2023/04/17 05:22:15;;;;;;;53.40;24.00;;;;;;;7.54;100.00;102554.06;4961248;28;20112;-96
2023/04/17 05:24:41;;;;;;;55.03;24.67;;;;;;;7.56;100.00;102560.22;4961860;28;20217;-95
2023/04/17 05:27:06;;;;;;;53.28;24.08;;;;;;;7.60;100.00;102562.22;4976139;28;20470;-96
2023/04/17 05:29:32;;;;;;;52.75;24.40;;;;;;;7.60;100.00;102555.34;4960777;28;20031;-96
2023/04/17 05:31:57;;;;;;;52.00;23.73;;;;;;;7.59;100.00;102561.34;4960663;28;20014;-96
2023/04/17 05:34:22;;;;;;;48.58;23.85;;;;;;;7.60;100.00;102557.03;4961113;28;20026;-96
2023/04/17 05:36:48;;;;;;;51.25;23.15;;;;;;;7.62;100.00;102563.22;4959684;28;20546;-96
2023/04/17 05:39:13;;;;;;;52.70;23.85;;;;;;;7.64;100.00;102559.03;4958634;28;20058;-95
2023/04/17 05:41:39;;;;;;;50.88;23.48;;;;;;;7.66;100.00;102565.19;4961077;28;20045;-95
2023/04/17 05:44:05;;;;;;;52.53;24.45;;;;;;;7.67;100.00;102559.22;4975024;28;20117;-96
2023/04/17 05:46:31;;;;;;;54.88;25.50;;;;;;;7.69;100.00;102573.19;4958482;28;20186;-96
2023/04/17 05:48:56;;;;;;;49.45;24.40;;;;;;;7.72;100.00;102568.19;4960594;28;20124;-96
2023/04/17 05:51:22;;;;;;;51.78;24.83;;;;;;;7.73;100.00;102566.50;4958771;28;20030;-95
2023/04/17 05:53:47;;;;;;;51.90;25.30;;;;;;;7.73;100.00;102574.28;4959171;28;20032;-96
2023/04/17 05:56:13;;;;;;;53.30;24.52;;;;;;;7.73;100.00;102572.56;4979058;28;20031;-95
2023/04/17 05:58:38;;;;;;;53.05;25.05;;;;;;;7.78;100.00;102571.16;4959356;28;20374;-96
2023/04/17 06:01:05;;;;;;;53.70;24.83;;;;;;;7.78;100.00;102573.75;4958766;28;20119;-96
2023/04/17 06:03:31;;;;;;;52.08;25.25;;;;;;;7.77;100.00;102576.28;4960388;28;20030;-95
2023/04/17 06:05:57;;;;;;;53.92;24.77;;;;;;;7.76;100.00;102572.78;4960647;28;20108;-96
2023/04/17 06:08:23;;;;;;;51.88;25.02;;;;;;;7.77;100.00;102573.66;4961363;28;20110;-95
2023/04/17 06:10:49;;;;;;;55.28;25.95;;;;;;;7.77;100.00;102577.16;4960509;28;20103;-95
2023/04/17 06:13:15;;;;;;;52.95;25.08;;;;;;;7.77;100.00;102577.16;4958594;28;20121;-96
2023/04/17 06:15:40;;;;;;;56.45;25.73;;;;;;;7.78;100.00;102583.25;4961924;28;20052;-95
2023/04/17 06:18:05;;;;;;;55.80;26.23;;;;;;;7.77;100.00;102584.94;4960265;28;20054;-95
2023/04/17 06:20:31;;;;;;;53.65;25.48;;;;;;;7.76;100.00;102585.75;4959211;28;20054;-96
2023/04/17 06:22:56;;;;;;;56.47;25.67;;;;;;;7.80;100.00;102581.66;4958728;28;20019;-95
2023/04/17 06:25:21;;;;;;;59.08;27.05;;;;;;;7.83;100.00;102590.53;4975694;28;20586;-96
2023/04/17 06:27:47;;;;;;;57.47;26.02;;;;;;;7.85;100.00;102595.81;4958550;28;20035;-95
2023/04/17 06:30:12;;;;;;;56.83;25.92;;;;;;;7.86;100.00;102595.00;4959570;28;20026;-96
2023/04/17 06:32:42;;;;;;;56.15;26.42;;;;;;;7.89;100.00;102591.72;4957853;28;20037;-95
2023/04/17 06:35:08;;;;;;;;;;;;;;;7.97;100.00;102601.75;4961005;28;20587;-96
2023/04/17 06:37:33;;;;;;;54.17;25.58;;;;;;;7.96;100.00;102599.06;4960401;28;19918;-95
2023/04/17 06:39:58;;;;;;;56.47;25.08;;;;;;;7.95;100.00;102599.88;4959134;28;20098;-96
2023/04/17 06:42:24;;;;;;;56.78;26.98;;;;;;;7.92;100.00;102599.69;4959041;28;20575;-94
2023/04/17 06:44:49;;;;;;;53.08;24.92;;;;;;;7.93;100.00;102604.97;4952451;28;20055;-95
2023/04/17 06:47:15;;;;;;;57.05;25.73;;;;;;;7.94;100.00;102598.97;4954057;28;20042;-96
2023/04/17 06:49:40;;;;;;;61.25;26.13;;;;;;;7.96;100.00;102604.25;4954949;28;20034;-95
2023/04/17 06:52:05;;;;;;;58.03;27.05;;;;;;;7.98;100.00;102610.44;4960367;28;20034;-96
2023/04/17 06:54:31;;;;;;;60.97;28.08;;;;;;;7.98;100.00;102611.34;4958263;28;20026;-96
2023/04/17 06:56:56;;;;;;;57.33;26.02;;;;;;;7.98;100.00;102607.84;4959536;28;20023;-96
2023/04/17 06:59:21;;;;;;;55.42;26.05;;;;;;;7.97;100.00;102609.56;4960050;28;20038;-96
2023/04/17 07:01:47;;;;;;;55.97;26.35;;;;;;;7.98;100.00;102608.75;4958397;28;20056;-96
2023/04/17 07:04:12;;;;;;;56.88;26.67;;;;;;;8.01;100.00;102615.84;4974263;28;20041;-96
2023/04/17 07:06:38;;;;;;;56.17;25.30;;;;;;;8.03;100.00;102622.03;4957640;28;20022;-96
2023/04/17 07:09:04;;;;;;;60.88;27.30;;;;;;;8.03;100.00;102626.31;4956681;28;20035;-96
2023/04/17 07:11:29;;;;;;;57.53;27.13;;;;;;;8.03;100.00;102623.72;4972469;28;20767;-96
2023/04/17 07:13:55;;;;;;;59.50;26.88;;;;;;;8.02;100.00;102625.41;4958417;28;20031;-96
2023/04/17 07:16:21;;;;;;;62.47;27.88;;;;;;;8.04;100.00;102636.81;4960851;28;20034;-96
2023/04/17 07:18:48;;;;;;;53.95;25.77;;;;;;;8.05;100.00;102638.56;4960704;28;20073;-96
2023/04/17 07:21:14;;;;;;;55.60;25.85;;;;;;;8.05;100.00;102630.78;4956887;28;20122;-96
2023/04/17 07:23:39;;;;;;;55.60;26.23;;;;;;;8.07;100.00;102639.59;4956940;28;20117;-95
2023/04/17 07:26:05;;;;;;;56.67;26.02;;;;;;;8.10;100.00;102642.38;4957700;28;20038;-96
2023/04/17 07:28:30;;;;;;;59.72;27.13;;;;;;;8.12;100.00;102643.34;4958753;28;20026;-96
2023/04/17 07:30:56;;;;;;;56.78;27.35;;;;;;;8.13;100.00;102645.16;4957991;28;20035;-96
2023/04/17 07:33:22;;;;;;;56.17;26.10;;;;;;;8.15;100.00;102646.19;4960610;28;20037;-96
2023/04/17 07:35:48;;;;;;;61.03;27.40;;;;;;;8.20;100.00;102638.66;4958836;28;20022;-96
2023/04/17 07:38:13;;;;;;;54.42;25.50;;;;;;;8.24;100.00;102645.84;4958807;28;20027;-96
2023/04/17 07:40:38;;;;;;;59.33;26.40;;;;;;;8.29;100.00;102646.13;4958369;28;20485;-96
2023/04/17 07:43:04;;;;;;;56.63;26.70;;;;;;;8.33;100.00;102648.13;4956650;28;20049;-96
2023/04/17 07:45:30;;;;;;;57.38;27.15;;;;;;;8.36;100.00;102648.31;4958728;28;20036;-96
2023/04/17 07:47:55;;;;;;;57.03;26.92;;;;;;;8.41;100.00;102649.47;4974418;28;20389;-95
2023/04/17 07:50:20;;;;;;;59.00;27.10;;;;;;;8.42;100.00;102648.66;4957664;28;20022;-96
2023/04/17 07:52:46;;;;;;;59.00;27.45;;;;;;;8.42;100.00;102648.66;4960141;28;20041;-96
2023/04/17 07:55:11;;;;;;;58.85;27.65;;;;;;;8.44;100.00;102656.56;4958505;28;20088;-96
2023/04/17 07:57:41;;;;;;;65.68;27.80;;;;;;;8.46;100.00;102657.59;4960881;28;20026;-96
2023/04/17 08:00:09;;;;;;;59.17;26.73;;;;;;;8.49;100.00;102650.88;4959099;28;20034;-96
2023/04/17 08:02:35;;;;;;;57.03;26.98;;;;;;;8.51;100.00;102658.75;4956637;28;20113;-96
2023/04/17 08:05:00;;;;;;;53.15;25.88;;;;;;;8.50;100.00;102651.75;4957744;28;20193;-96
2023/04/17 08:07:26;;;;;;;56.53;26.60;;;;;;;8.52;100.00;102661.44;4956660;28;20030;-95
2023/04/17 08:09:51;;;;;;;57.42;26.73;;;;;;;8.61;100.00;102658.50;4974533;28;20183;-96
2023/04/17 08:12:17;;;;;;;47.45;25.02;;;;;;;8.67;100.00;102658.00;4955788;28;20066;-96
2023/04/17 08:14:42;;;;;;;56.10;27.02;;;;;;;8.72;100.00;102654.00;4957769;28;20034;-96
2023/04/17 08:17:08;;;;;;;51.63;24.58;;;;;;;8.76;100.00;102661.16;4958013;28;20023;-96
2023/04/17 08:19:33;;;;;;;55.33;25.95;;;;;;;8.80;100.00;102655.31;4957377;28;20205;-96
2023/04/17 08:22:03;;;;;;;49.97;26.15;;;;;;;8.87;100.00;102667.00;4959539;28;20483;-96
2023/04/17 08:24:30;;;;;;;53.33;26.15;;;;;;;8.93;100.00;102659.56;4972229;28;20031;-95
2023/04/17 08:26:56;;;;;;;53.35;25.83;;;;;;;9.00;100.00;102655.63;4956549;28;20386;-96
2023/04/17 08:29:21;;;;;;;52.45;26.17;;;;;;;9.10;100.00;102655.38;4958468;28;20033;-96
2023/04/17 08:31:47;;;;;;;52.83;24.67;;;;;;;9.16;99.64;102658.31;4976156;28;20092;-96
2023/04/17 08:34:12;;;;;;;49.70;25.92;;;;;;;9.21;99.65;102656.91;4959530;28;20352;-96
2023/04/17 08:36:38;;;;;;;51.70;25.35;;;;;;;9.27;98.77;102661.56;4958048;28;20034;-96
2023/04/17 08:39:03;;;;;;;54.28;26.38;;;;;;;9.33;99.86;102658.41;4956355;28;20042;-96
2023/04/17 08:41:36;;;;;;;52.28;25.55;;;;;;;9.39;98.64;102657.06;4956401;28;20027;-96
2023/04/17 08:44:02;;;;;;;51.83;26.48;;;;;;;9.48;98.82;102661.00;4956154;28;20023;-96
2023/04/17 08:46:29;;;;;;;49.80;26.20;;;;;;;9.51;97.01;102661.16;4959517;28;20519;-96
2023/04/17 08:48:55;;;;;;;51.70;25.65;;;;;;;9.53;97.65;102660.47;4955592;28;20027;-96
2023/04/17 08:51:25;;;;;;;55.90;26.92;;;;;;;9.55;97.26;102664.03;4956133;28;20077;-96
2023/04/17 08:53:50;;;;;;;51.47;25.30;;;;;;;9.60;97.42;102663.41;4958320;28;20050;-96
2023/04/17 08:56:15;;;;;;;50.25;25.58;;;;;;;9.63;96.33;102661.88;4975077;28;20154;-96
2023/04/17 08:58:42;;;;;;;56.40;26.05;;;;;;;9.68;96.53;102667.34;4956066;28;20141;-96
2023/04/17 09:01:09;;;;;;;51.08;25.75;;;;;;;9.70;96.71;102664.03;4957760;28;20756;-96
2023/04/17 09:03:40;;;;;;;49.35;25.77;;;;;;;9.75;96.83;102659.06;4958818;28;21220;-96
2023/04/17 09:06:08;;;;;;;52.22;26.73;;;;;;;9.76;94.84;102663.44;4956054;28;20492;-96
2023/04/17 09:08:33;;;;;;;48.70;25.92;;;;;;;9.71;95.29;102660.59;4975023;28;20151;-96
2023/04/17 09:10:58;;;;;;;50.33;26.25;;;;;;;9.69;95.41;102664.81;4956718;28;21176;-96
2023/04/17 09:13:24;;;;;;;49.83;25.55;;;;;;;9.73;96.09;102668.47;4974086;28;20026;-96
2023/04/17 09:16:11;;;;;;;50.17;26.88;;;;;;;9.83;96.08;102668.19;4958802;28;20157;-96
2023/04/17 09:18:38;;;;;;;53.63;26.83;;;;;;;9.88;95.41;102666.75;4976904;28;20076;-96
2023/04/17 09:21:05;;;;;;;55.95;27.67;;;;;;;9.89;95.34;102659.81;4977532;28;20038;-95
2023/04/17 09:23:47;;;;;;;53.97;27.48;;;;;;;9.92;94.28;102673.94;4960994;28;20138;-96
2023/04/17 09:26:14;;;;;;;51.55;26.55;;;;;;;9.98;94.45;102675.97;4978936;28;20546;-96
2023/04/17 09:28:42;;;;;;;54.42;27.30;;;;;;;10.01;94.55;102668.34;4960265;28;20023;-96
2023/04/17 09:31:16;;;;;;;53.17;26.55;;;;;;;10.08;95.95;102665.25;4979088;28;20034;-96
2023/04/17 09:34:02;;;;;;;54.33;27.30;;;;;;;10.15;94.23;102662.97;4959570;28;20035;-96
2023/04/17 09:36:31;;;;;;;54.58;27.70;;;;;;;10.33;96.78;102660.50;4974284;28;20077;-96
2023/04/17 09:39:00;;;;;;;55.47;27.33;;;;;;;10.46;92.53;102657.75;4979452;28;20026;-96
2023/04/17 09:41:28;;;;;;;53.38;27.48;;;;;;;10.59;93.19;102656.69;4960978;28;20531;-96
2023/04/17 09:43:59;;;;;;;51.30;26.80;;;;;;;10.70;92.78;102659.84;4978467;28;20124;-96
2023/04/17 09:46:40;;;;;;;53.78;26.85;;;;;;;10.80;92.31;102656.91;4977990;28;20089;-96
2023/04/17 09:49:17;;;;;;;52.72;28.00;;;;;;;10.96;93.06;102659.50;4977779;28;20018;-96
2023/04/17 09:51:44;;;;;;;51.67;26.63;;;;;;;11.00;90.37;102659.66;4954504;28;20378;-96
2023/04/17 09:54:10;;;;;;;51.92;27.50;;;;;;;11.03;90.27;102659.81;4961042;28;20027;-96
2023/04/17 09:56:36;;;;;;;49.60;26.67;;;;;;;11.04;89.76;102659.00;4959861;28;20107;-96
2023/04/17 09:59:04;;;;;;;49.50;26.65;;;;;;;11.12;90.49;102658.56;4957171;28;20110;-96
2023/04/17 10:01:34;;;;;;;51.67;27.88;;;;;;;11.20;88.76;102664.16;4958159;28;20157;-96
2023/04/17 10:04:01;;;;;;;51.38;29.17;;;;;;;11.36;90.84;102652.78;4959176;28;20046;-96
2023/04/17 10:06:26;;;;;;;54.03;27.27;;;;;;;11.48;87.98;102652.50;4976335;28;20018;-96
2023/04/17 10:08:52;;;;;;;51.33;28.15;;;;;;;11.62;88.14;102656.66;4977341;28;20052;-96
2023/04/17 10:11:18;;;;;;;45.97;26.77;;;;;;;11.72;84.63;102650.19;4961911;28;20026;-96
2023/04/17 10:13:48;;;;;;;52.78;27.35;;;;;;;11.78;84.23;102650.47;4978628;28;20591;-96
2023/04/17 10:16:13;;;;;;;50.50;27.25;;;;;;;11.85;86.56;102646.44;4958970;28;20513;-96
2023/04/17 10:18:39;;;;;;;51.75;28.48;;;;;;;11.96;86.45;102653.09;4961304;28;20125;-96
2023/04/17 10:21:23;;;;;;;49.10;27.42;;;;;;;12.09;84.25;102646.72;4960352;28;20050;-96
2023/04/17 10:23:48;;;;;;;46.92;25.60;;;;;;;12.26;82.33;102642.25;4978588;28;20512;-96
2023/04/17 10:26:34;;;;;;;47.75;26.08;;;;;;;12.46;83.33;102645.78;4961329;28;20050;-96
2023/04/17 10:28:59;;;;;;;48.75;27.02;;;;;;;12.79;81.34;102641.97;4960869;28;20073;-96
2023/04/17 10:32:07;;;;;;;50.75;27.88;;;;;;;13.19;82.40;102633.19;4959894;28;20493;-96
2023/04/17 10:34:36;;;;;;;46.08;26.30;;;;;;;13.28;79.15;102637.91;4935518;28;20339;-96
2023/04/17 10:37:03;;;;;;;;;;;;;;;13.40;84.32;102638.47;4960767;28;20023;-96
2023/04/17 10:39:49;;;;;;;44.95;25.35;;;;;;;13.63;80.56;102643.72;4959811;28;20336;-96
2023/04/17 10:42:19;;;;;;;46.92;25.60;;;;;;;13.75;77.29;102639.00;4963218;28;20057;-96
2023/04/17 10:44:46;;;;;;;43.08;24.00;;;;;;;13.76;74.96;102643.41;4961598;28;20034;-96
2023/04/17 10:47:18;;;;;;;43.00;24.83;;;;;;;13.61;74.67;102643.66;4963250;28;20069;-96
2023/04/17 10:49:54;;;;;;;40.88;24.20;;;;;;;13.39;73.28;102637.56;4960791;28;20034;-96
2023/04/17 10:52:46;;;;;;;40.38;24.05;;;;;;;13.28;75.96;102633.59;4959636;28;20039;-96
2023/04/17 10:55:20;;;;;;;43.83;25.08;;;;;;;13.38;76.30;102638.41;4959306;28;20042;-96
2023/04/17 10:57:55;;;;;;;43.15;25.05;;;;;;;13.61;76.41;102633.19;4959158;28;20650;-96
2023/04/17 11:00:29;;;;;;;46.95;26.63;;;;;;;13.80;77.60;102633.91;4959457;28;20377;-96
2023/04/17 11:02:54;;;;;;;48.50;26.55;;;;;;;14.08;79.27;102621.03;4977624;28;20034;-96
2023/04/17 11:05:19;;;;;;;49.03;26.33;;;;;;;14.28;75.29;102628.78;4959952;28;20486;-96
2023/04/17 11:07:49;;;;;;;41.80;25.15;;;;;;;14.34;72.18;102628.09;4962471;28;20031;-96
2023/04/17 11:10:17;;;;;;;40.75;24.83;;;;;;;14.29;71.17;102625.31;4962199;28;20583;-96